sensor_id;sensor_type;location;lat;lon;timestamp;P1;durP1;ratioP1;P2;durP2;ratioP2
57385;SDS011;62655;56.780;23.922;2022-10-14T00:01:07;16.17;;;9.43;;
57385;SDS011;62655;56.780;23.922;2022-10-14T00:03:38;16.05;;;9.95;;
57385;SDS011;62655;56.780;23.922;2022-10-14T00:06:06;19.52;;;10.32;;
57385;SDS011;62655;56.780;23.922;2022-10-14T00:08:37;23.38;;;10.15;;
57385;SDS011;62655;56.780;23.922;2022-10-14T00:11:06;8.93;;;8.02;;
57385;SDS011;62655;56.780;23.922;2022-10-14T00:13:35;15.63;;;7.82;;
57385;SDS011;62655;56.780;23.922;2022-10-14T00:16:03;14.70;;;8.02;;
57385;SDS011;62655;56.780;23.922;2022-10-14T00:18:31;8.50;;;7.68;;
57385;SDS011;62655;56.780;23.922;2022-10-14T00:21:00;19.33;;;10.32;;
57385;SDS011;62655;56.780;23.922;2022-10-14T00:23:28;17.77;;;7.90;;
57385;SDS011;62655;56.780;23.922;2022-10-14T00:25:55;15.40;;;9.13;;
57385;SDS011;62655;56.780;23.922;2022-10-14T00:28:23;11.45;;;8.02;;
57385;SDS011;62655;56.780;23.922;2022-10-14T00:30:54;14.18;;;8.52;;
57385;SDS011;62655;56.780;23.922;2022-10-14T00:33:23;9.00;;;8.10;;
57385;SDS011;62655;56.780;23.922;2022-10-14T00:35:54;12.95;;;8.15;;
57385;SDS011;62655;56.780;23.922;2022-10-14T00:38:23;11.85;;;7.82;;
57385;SDS011;62655;56.780;23.922;2022-10-14T00:40:51;11.85;;;8.73;;
57385;SDS011;62655;56.780;23.922;2022-10-14T00:43:20;13.90;;;7.78;;
57385;SDS011;62655;56.780;23.922;2022-10-14T00:45:48;14.93;;;7.17;;
57385;SDS011;62655;56.780;23.922;2022-10-14T00:48:16;10.10;;;7.30;;
57385;SDS011;62655;56.780;23.922;2022-10-14T00:50:46;9.65;;;6.88;;
57385;SDS011;62655;56.780;23.922;2022-10-14T00:53:18;14.80;;;8.20;;
57385;SDS011;62655;56.780;23.922;2022-10-14T00:55:46;10.13;;;6.50;;
57385;SDS011;62655;56.780;23.922;2022-10-14T00:58:14;13.63;;;7.78;;
57385;SDS011;62655;56.780;23.922;2022-10-14T01:00:42;10.43;;;7.75;;
57385;SDS011;62655;56.780;23.922;2022-10-14T01:03:15;10.48;;;8.57;;
57385;SDS011;62655;56.780;23.922;2022-10-14T01:05:53;9.40;;;7.03;;
57385;SDS011;62655;56.780;23.922;2022-10-14T01:08:43;10.27;;;6.60;;
57385;SDS011;62655;56.780;23.922;2022-10-14T01:14:02;10.52;;;7.15;;
57385;SDS011;62655;56.780;23.922;2022-10-14T01:16:45;11.95;;;8.25;;
57385;SDS011;62655;56.780;23.922;2022-10-14T01:22:34;9.68;;;6.45;;
57385;SDS011;62655;56.780;23.922;2022-10-14T01:25:18;14.90;;;8.27;;
57385;SDS011;62655;56.780;23.922;2022-10-14T01:30:36;17.00;;;7.72;;
57385;SDS011;62655;56.780;23.922;2022-10-14T01:33:33;11.85;;;7.53;;
57385;SDS011;62655;56.780;23.922;2022-10-14T01:36:23;13.35;;;7.88;;
57385;SDS011;62655;56.780;23.922;2022-10-14T01:39:16;23.08;;;7.88;;
57385;SDS011;62655;56.780;23.922;2022-10-14T01:41:51;8.48;;;6.47;;
57385;SDS011;62655;56.780;23.922;2022-10-14T01:44:25;11.00;;;7.35;;
57385;SDS011;62655;56.780;23.922;2022-10-14T01:46:54;14.20;;;7.78;;
57385;SDS011;62655;56.780;23.922;2022-10-14T01:49:28;15.35;;;7.32;;
57385;SDS011;62655;56.780;23.922;2022-10-14T01:52:01;23.40;;;10.80;;
57385;SDS011;62655;56.780;23.922;2022-10-14T01:54:46;15.50;;;7.43;;
57385;SDS011;62655;56.780;23.922;2022-10-14T01:57:18;13.00;;;7.70;;
57385;SDS011;62655;56.780;23.922;2022-10-14T01:59:50;18.98;;;9.40;;
57385;SDS011;62655;56.780;23.922;2022-10-14T02:02:18;9.20;;;6.78;;
57385;SDS011;62655;56.780;23.922;2022-10-14T02:04:49;15.43;;;9.00;;
57385;SDS011;62655;56.780;23.922;2022-10-14T02:07:39;11.88;;;6.68;;
57385;SDS011;62655;56.780;23.922;2022-10-14T02:10:23;14.15;;;7.10;;
57385;SDS011;62655;56.780;23.922;2022-10-14T02:13:38;10.30;;;8.77;;
57385;SDS011;62655;56.780;23.922;2022-10-14T02:18:53;13.32;;;8.50;;
57385;SDS011;62655;56.780;23.922;2022-10-14T02:21:36;14.45;;;7.20;;
57385;SDS011;62655;56.780;23.922;2022-10-14T02:24:08;13.35;;;6.85;;
57385;SDS011;62655;56.780;23.922;2022-10-14T02:26:46;7.70;;;5.70;;
57385;SDS011;62655;56.780;23.922;2022-10-14T02:29:18;9.00;;;6.75;;
57385;SDS011;62655;56.780;23.922;2022-10-14T02:31:48;12.00;;;8.48;;
57385;SDS011;62655;56.780;23.922;2022-10-14T02:34:18;8.65;;;7.75;;
57385;SDS011;62655;56.780;23.922;2022-10-14T02:36:48;12.65;;;6.60;;
57385;SDS011;62655;56.780;23.922;2022-10-14T02:39:23;12.70;;;6.47;;
57385;SDS011;62655;56.780;23.922;2022-10-14T02:41:55;10.98;;;6.90;;
57385;SDS011;62655;56.780;23.922;2022-10-14T02:44:23;12.18;;;7.22;;
57385;SDS011;62655;56.780;23.922;2022-10-14T02:46:50;10.65;;;7.00;;
57385;SDS011;62655;56.780;23.922;2022-10-14T02:49:20;6.65;;;6.03;;
57385;SDS011;62655;56.780;23.922;2022-10-14T02:51:48;9.13;;;6.38;;
57385;SDS011;62655;56.780;23.922;2022-10-14T02:54:15;9.00;;;6.15;;
57385;SDS011;62655;56.780;23.922;2022-10-14T02:56:42;11.27;;;7.50;;
57385;SDS011;62655;56.780;23.922;2022-10-14T02:59:09;13.35;;;5.80;;
57385;SDS011;62655;56.780;23.922;2022-10-14T03:01:37;8.95;;;5.85;;
57385;SDS011;62655;56.780;23.922;2022-10-14T03:04:04;12.48;;;7.63;;
57385;SDS011;62655;56.780;23.922;2022-10-14T03:06:32;13.48;;;7.30;;
57385;SDS011;62655;56.780;23.922;2022-10-14T03:08:59;9.18;;;6.32;;
57385;SDS011;62655;56.780;23.922;2022-10-14T03:11:26;11.32;;;7.35;;
57385;SDS011;62655;56.780;23.922;2022-10-14T03:13:53;19.10;;;8.55;;
57385;SDS011;62655;56.780;23.922;2022-10-14T03:16:21;11.60;;;6.20;;
57385;SDS011;62655;56.780;23.922;2022-10-14T03:18:48;14.30;;;7.13;;
57385;SDS011;62655;56.780;23.922;2022-10-14T03:21:15;6.60;;;5.82;;
57385;SDS011;62655;56.780;23.922;2022-10-14T03:23:42;10.85;;;5.60;;
57385;SDS011;62655;56.780;23.922;2022-10-14T03:26:10;8.18;;;6.95;;
57385;SDS011;62655;56.780;23.922;2022-10-14T03:28:39;8.80;;;5.80;;
57385;SDS011;62655;56.780;23.922;2022-10-14T03:31:07;10.68;;;6.13;;
57385;SDS011;62655;56.780;23.922;2022-10-14T03:33:34;8.13;;;5.57;;
57385;SDS011;62655;56.780;23.922;2022-10-14T03:36:01;7.78;;;5.65;;
57385;SDS011;62655;56.780;23.922;2022-10-14T03:38:29;5.93;;;5.35;;
57385;SDS011;62655;56.780;23.922;2022-10-14T03:40:57;10.32;;;7.45;;
57385;SDS011;62655;56.780;23.922;2022-10-14T03:43:24;8.00;;;5.07;;
57385;SDS011;62655;56.780;23.922;2022-10-14T03:45:52;6.60;;;5.30;;
57385;SDS011;62655;56.780;23.922;2022-10-14T03:48:19;10.13;;;6.68;;
57385;SDS011;62655;56.780;23.922;2022-10-14T03:50:47;13.07;;;5.97;;
57385;SDS011;62655;56.780;23.922;2022-10-14T03:53:14;6.20;;;4.95;;
57385;SDS011;62655;56.780;23.922;2022-10-14T03:55:42;6.85;;;5.53;;
57385;SDS011;62655;56.780;23.922;2022-10-14T03:58:10;9.35;;;7.03;;
57385;SDS011;62655;56.780;23.922;2022-10-14T04:00:37;6.80;;;5.72;;
57385;SDS011;62655;56.780;23.922;2022-10-14T04:03:05;7.47;;;6.25;;
57385;SDS011;62655;56.780;23.922;2022-10-14T04:05:32;6.93;;;5.25;;
57385;SDS011;62655;56.780;23.922;2022-10-14T04:08:00;7.07;;;5.53;;
57385;SDS011;62655;56.780;23.922;2022-10-14T04:10:27;7.65;;;5.30;;
57385;SDS011;62655;56.780;23.922;2022-10-14T04:12:55;11.27;;;5.45;;
57385;SDS011;62655;56.780;23.922;2022-10-14T04:15:22;7.50;;;4.57;;
57385;SDS011;62655;56.780;23.922;2022-10-14T04:17:50;6.65;;;4.97;;
57385;SDS011;62655;56.780;23.922;2022-10-14T04:20:17;7.78;;;6.00;;
57385;SDS011;62655;56.780;23.922;2022-10-14T04:22:45;9.55;;;5.05;;
57385;SDS011;62655;56.780;23.922;2022-10-14T04:25:12;10.30;;;5.18;;
57385;SDS011;62655;56.780;23.922;2022-10-14T04:27:39;7.40;;;5.50;;
57385;SDS011;62655;56.780;23.922;2022-10-14T04:30:08;9.27;;;5.00;;
57385;SDS011;62655;56.780;23.922;2022-10-14T04:32:36;9.90;;;6.00;;
57385;SDS011;62655;56.780;23.922;2022-10-14T04:35:03;10.35;;;5.00;;
57385;SDS011;62655;56.780;23.922;2022-10-14T04:37:31;9.40;;;4.85;;
57385;SDS011;62655;56.780;23.922;2022-10-14T04:39:59;9.27;;;5.97;;
57385;SDS011;62655;56.780;23.922;2022-10-14T04:42:26;9.45;;;5.30;;
57385;SDS011;62655;56.780;23.922;2022-10-14T04:44:53;6.32;;;4.63;;
57385;SDS011;62655;56.780;23.922;2022-10-14T04:47:20;8.10;;;4.95;;
57385;SDS011;62655;56.780;23.922;2022-10-14T04:49:48;9.63;;;5.40;;
57385;SDS011;62655;56.780;23.922;2022-10-14T04:52:15;9.45;;;5.72;;
57385;SDS011;62655;56.780;23.922;2022-10-14T04:54:43;6.55;;;5.03;;
57385;SDS011;62655;56.780;23.922;2022-10-14T04:57:10;8.07;;;5.65;;
57385;SDS011;62655;56.780;23.922;2022-10-14T04:59:37;6.80;;;4.78;;
57385;SDS011;62655;56.780;23.922;2022-10-14T05:02:05;9.68;;;5.65;;
57385;SDS011;62655;56.780;23.922;2022-10-14T05:04:33;6.53;;;5.03;;
57385;SDS011;62655;56.780;23.922;2022-10-14T05:07:00;10.43;;;5.65;;
57385;SDS011;62655;56.780;23.922;2022-10-14T05:32:15;18.25;;;6.13;;
57385;SDS011;62655;56.780;23.922;2022-10-14T05:34:43;9.77;;;5.95;;
57385;SDS011;62655;56.780;23.922;2022-10-14T05:37:10;7.75;;;5.15;;
57385;SDS011;62655;56.780;23.922;2022-10-14T05:39:37;6.43;;;5.05;;
57385;SDS011;62655;56.780;23.922;2022-10-14T05:42:05;5.18;;;4.68;;
57385;SDS011;62655;56.780;23.922;2022-10-14T05:44:32;6.85;;;4.85;;
57385;SDS011;62655;56.780;23.922;2022-10-14T05:46:59;8.95;;;5.80;;
57385;SDS011;62655;56.780;23.922;2022-10-14T05:49:27;5.95;;;5.13;;
57385;SDS011;62655;56.780;23.922;2022-10-14T05:51:54;7.65;;;5.13;;
57385;SDS011;62655;56.780;23.922;2022-10-14T05:54:21;9.52;;;5.63;;
57385;SDS011;62655;56.780;23.922;2022-10-14T05:56:48;7.97;;;5.32;;
57385;SDS011;62655;56.780;23.922;2022-10-14T05:59:16;9.50;;;5.57;;
57385;SDS011;62655;56.780;23.922;2022-10-14T06:01:44;6.53;;;5.13;;
57385;SDS011;62655;56.780;23.922;2022-10-14T06:04:18;6.05;;;4.72;;
57385;SDS011;62655;56.780;23.922;2022-10-14T06:06:46;11.00;;;5.75;;
57385;SDS011;62655;56.780;23.922;2022-10-14T06:09:13;11.98;;;5.50;;
57385;SDS011;62655;56.780;23.922;2022-10-14T06:11:41;9.40;;;5.32;;
57385;SDS011;62655;56.780;23.922;2022-10-14T06:14:08;7.25;;;4.05;;
57385;SDS011;62655;56.780;23.922;2022-10-14T06:16:36;8.45;;;5.15;;
57385;SDS011;62655;56.780;23.922;2022-10-14T06:19:03;7.75;;;4.70;;
57385;SDS011;62655;56.780;23.922;2022-10-14T06:21:30;10.07;;;4.68;;
57385;SDS011;62655;56.780;23.922;2022-10-14T06:23:58;5.53;;;4.13;;
57385;SDS011;62655;56.780;23.922;2022-10-14T06:26:25;7.88;;;4.43;;
57385;SDS011;62655;56.780;23.922;2022-10-14T06:28:53;5.43;;;4.20;;
57385;SDS011;62655;56.780;23.922;2022-10-14T06:31:20;7.28;;;4.15;;
57385;SDS011;62655;56.780;23.922;2022-10-14T06:33:48;10.02;;;4.00;;
57385;SDS011;62655;56.780;23.922;2022-10-14T06:36:16;6.38;;;3.70;;
57385;SDS011;62655;56.780;23.922;2022-10-14T06:38:43;6.97;;;3.67;;
57385;SDS011;62655;56.780;23.922;2022-10-14T06:41:10;4.85;;;4.32;;
57385;SDS011;62655;56.780;23.922;2022-10-14T06:43:38;5.55;;;3.65;;
57385;SDS011;62655;56.780;23.922;2022-10-14T06:46:05;6.97;;;3.60;;
57385;SDS011;62655;56.780;23.922;2022-10-14T06:48:32;9.48;;;4.57;;
57385;SDS011;62655;56.780;23.922;2022-10-14T06:51:00;11.27;;;4.03;;
57385;SDS011;62655;56.780;23.922;2022-10-14T06:53:28;8.02;;;3.97;;
57385;SDS011;62655;56.780;23.922;2022-10-14T06:55:56;8.90;;;4.63;;
57385;SDS011;62655;56.780;23.922;2022-10-14T06:58:25;10.25;;;5.70;;
57385;SDS011;62655;56.780;23.922;2022-10-14T07:00:52;8.35;;;4.30;;
57385;SDS011;62655;56.780;23.922;2022-10-14T07:03:20;9.35;;;3.72;;
57385;SDS011;62655;56.780;23.922;2022-10-14T07:05:47;7.67;;;4.43;;
57385;SDS011;62655;56.780;23.922;2022-10-14T07:08:14;10.05;;;5.75;;
57385;SDS011;62655;56.780;23.922;2022-10-14T07:10:42;7.05;;;4.60;;
57385;SDS011;62655;56.780;23.922;2022-10-14T07:13:09;8.13;;;4.35;;
57385;SDS011;62655;56.780;23.922;2022-10-14T07:15:38;7.70;;;4.40;;
57385;SDS011;62655;56.780;23.922;2022-10-14T07:18:06;10.07;;;4.68;;
57385;SDS011;62655;56.780;23.922;2022-10-14T07:20:33;6.35;;;4.13;;
57385;SDS011;62655;56.780;23.922;2022-10-14T07:23:00;6.00;;;4.40;;
57385;SDS011;62655;56.780;23.922;2022-10-14T07:25:28;4.68;;;4.20;;
57385;SDS011;62655;56.780;23.922;2022-10-14T07:27:55;6.38;;;3.53;;
57385;SDS011;62655;56.780;23.922;2022-10-14T07:30:23;10.02;;;4.82;;
57385;SDS011;62655;56.780;23.922;2022-10-14T07:32:50;7.40;;;4.18;;
57385;SDS011;62655;56.780;23.922;2022-10-14T07:35:18;11.45;;;4.72;;
57385;SDS011;62655;56.780;23.922;2022-10-14T07:37:45;7.80;;;4.15;;
57385;SDS011;62655;56.780;23.922;2022-10-14T07:40:13;8.15;;;4.32;;
57385;SDS011;62655;56.780;23.922;2022-10-14T07:42:40;6.93;;;3.72;;
57385;SDS011;62655;56.780;23.922;2022-10-14T07:45:08;5.95;;;3.95;;
57385;SDS011;62655;56.780;23.922;2022-10-14T07:47:36;4.65;;;3.67;;
57385;SDS011;62655;56.780;23.922;2022-10-14T07:50:03;8.90;;;4.25;;
57385;SDS011;62655;56.780;23.922;2022-10-14T07:52:31;8.73;;;4.45;;
57385;SDS011;62655;56.780;23.922;2022-10-14T07:54:59;11.23;;;5.90;;
57385;SDS011;62655;56.780;23.922;2022-10-14T07:57:26;10.77;;;4.25;;
57385;SDS011;62655;56.780;23.922;2022-10-14T07:59:54;7.78;;;4.60;;
57385;SDS011;62655;56.780;23.922;2022-10-14T08:02:21;6.47;;;3.53;;
57385;SDS011;62655;56.780;23.922;2022-10-14T08:04:52;7.70;;;3.75;;
57385;SDS011;62655;56.780;23.922;2022-10-14T08:07:38;6.38;;;3.30;;
57385;SDS011;62655;56.780;23.922;2022-10-14T08:10:06;6.00;;;3.33;;
57385;SDS011;62655;56.780;23.922;2022-10-14T08:12:33;7.60;;;3.50;;
57385;SDS011;62655;56.780;23.922;2022-10-14T08:15:00;8.30;;;3.92;;
57385;SDS011;62655;56.780;23.922;2022-10-14T08:17:28;6.63;;;3.72;;
57385;SDS011;62655;56.780;23.922;2022-10-14T08:19:55;3.28;;;2.78;;
57385;SDS011;62655;56.780;23.922;2022-10-14T08:22:25;4.47;;;3.53;;
57385;SDS011;62655;56.780;23.922;2022-10-14T08:24:52;8.25;;;4.57;;
57385;SDS011;62655;56.780;23.922;2022-10-14T08:27:19;8.60;;;3.17;;
57385;SDS011;62655;56.780;23.922;2022-10-14T08:29:47;7.07;;;4.78;;
57385;SDS011;62655;56.780;23.922;2022-10-14T08:32:14;7.47;;;4.80;;
57385;SDS011;62655;56.780;23.922;2022-10-14T08:34:41;5.28;;;3.45;;
57385;SDS011;62655;56.780;23.922;2022-10-14T08:37:09;7.13;;;3.50;;
57385;SDS011;62655;56.780;23.922;2022-10-14T08:39:37;7.22;;;4.15;;
57385;SDS011;62655;56.780;23.922;2022-10-14T08:42:19;4.10;;;3.13;;
57385;SDS011;62655;56.780;23.922;2022-10-14T08:47:51;4.35;;;2.83;;
57385;SDS011;62655;56.780;23.922;2022-10-14T08:55:32;6.57;;;3.20;;
57385;SDS011;62655;56.780;23.922;2022-10-14T08:58:06;5.30;;;3.10;;
57385;SDS011;62655;56.780;23.922;2022-10-14T09:00:39;6.82;;;4.00;;
57385;SDS011;62655;56.780;23.922;2022-10-14T09:03:21;5.90;;;3.25;;
57385;SDS011;62655;56.780;23.922;2022-10-14T09:05:55;5.55;;;3.58;;
57385;SDS011;62655;56.780;23.922;2022-10-14T09:08:27;8.52;;;4.65;;
57385;SDS011;62655;56.780;23.922;2022-10-14T09:11:09;8.40;;;3.65;;
57385;SDS011;62655;56.780;23.922;2022-10-14T09:14:05;7.47;;;3.33;;
57385;SDS011;62655;56.780;23.922;2022-10-14T09:16:34;6.80;;;3.93;;
57385;SDS011;62655;56.780;23.922;2022-10-14T09:19:05;9.43;;;3.60;;
57385;SDS011;62655;56.780;23.922;2022-10-14T09:21:48;8.15;;;3.53;;
57385;SDS011;62655;56.780;23.922;2022-10-14T09:24:23;6.68;;;3.67;;
57385;SDS011;62655;56.780;23.922;2022-10-14T09:26:59;7.97;;;3.83;;
57385;SDS011;62655;56.780;23.922;2022-10-14T09:29:41;11.45;;;4.18;;
57385;SDS011;62655;56.780;23.922;2022-10-14T09:32:16;6.45;;;3.42;;
57385;SDS011;62655;56.780;23.922;2022-10-14T09:34:53;7.57;;;4.03;;
57385;SDS011;62655;56.780;23.922;2022-10-14T09:37:29;7.40;;;3.65;;
57385;SDS011;62655;56.780;23.922;2022-10-14T09:42:54;5.97;;;2.78;;
57385;SDS011;62655;56.780;23.922;2022-10-14T09:48:15;4.75;;;3.33;;
57385;SDS011;62655;56.780;23.922;2022-10-14T09:50:49;6.70;;;4.00;;
57385;SDS011;62655;56.780;23.922;2022-10-14T09:53:28;5.32;;;3.20;;
57385;SDS011;62655;56.780;23.922;2022-10-14T09:56:12;5.78;;;3.80;;
57385;SDS011;62655;56.780;23.922;2022-10-14T09:58:52;8.00;;;2.85;;
57385;SDS011;62655;56.780;23.922;2022-10-14T10:01:23;4.72;;;2.88;;
57385;SDS011;62655;56.780;23.922;2022-10-14T10:03:55;6.28;;;3.17;;
57385;SDS011;62655;56.780;23.922;2022-10-14T10:06:24;9.32;;;3.20;;
57385;SDS011;62655;56.780;23.922;2022-10-14T10:11:29;8.80;;;4.25;;
57385;SDS011;62655;56.780;23.922;2022-10-14T10:14:09;7.32;;;3.75;;
57385;SDS011;62655;56.780;23.922;2022-10-14T10:16:50;5.55;;;3.50;;
57385;SDS011;62655;56.780;23.922;2022-10-14T10:19:42;7.50;;;4.50;;
57385;SDS011;62655;56.780;23.922;2022-10-14T10:27:27;9.25;;;4.85;;
57385;SDS011;62655;56.780;23.922;2022-10-14T10:55:11;8.88;;;4.20;;
57385;SDS011;62655;56.780;23.922;2022-10-14T11:00:48;7.32;;;4.50;;
57385;SDS011;62655;56.780;23.922;2022-10-14T11:06:22;9.18;;;5.15;;
57385;SDS011;62655;56.780;23.922;2022-10-14T11:09:27;11.85;;;5.70;;
57385;SDS011;62655;56.780;23.922;2022-10-14T11:24:04;13.40;;;5.07;;
57385;SDS011;62655;56.780;23.922;2022-10-14T11:26:51;10.18;;;6.65;;
57385;SDS011;62655;56.780;23.922;2022-10-14T11:32:41;8.38;;;4.32;;
57385;SDS011;62655;56.780;23.922;2022-10-14T11:35:58;5.75;;;3.80;;
57385;SDS011;62655;56.780;23.922;2022-10-14T11:38:30;10.02;;;4.72;;
57385;SDS011;62655;56.780;23.922;2022-10-14T11:43:57;9.43;;;4.82;;
57385;SDS011;62655;56.780;23.922;2022-10-14T11:46:46;6.47;;;3.67;;
57385;SDS011;62655;56.780;23.922;2022-10-14T11:50:02;10.88;;;4.28;;
57385;SDS011;62655;56.780;23.922;2022-10-14T11:52:22;7.93;;;4.07;;
57385;SDS011;62655;56.780;23.922;2022-10-14T11:55:15;5.82;;;4.43;;
57385;SDS011;62655;56.780;23.922;2022-10-14T12:00:22;9.98;;;4.90;;
57385;SDS011;62655;56.780;23.922;2022-10-14T12:05:46;7.97;;;5.32;;
57385;SDS011;62655;56.780;23.922;2022-10-14T12:08:26;10.27;;;5.78;;
57385;SDS011;62655;56.780;23.922;2022-10-14T12:13:41;8.48;;;4.68;;
57385;SDS011;62655;56.780;23.922;2022-10-14T12:16:19;8.48;;;5.65;;
57385;SDS011;62655;56.780;23.922;2022-10-14T12:18:49;10.05;;;4.53;;
57385;SDS011;62655;56.780;23.922;2022-10-14T12:24:02;13.20;;;5.88;;
57385;SDS011;62655;56.780;23.922;2022-10-14T12:29:04;7.97;;;4.82;;
57385;SDS011;62655;56.780;23.922;2022-10-14T12:31:36;11.40;;;6.03;;
57385;SDS011;62655;56.780;23.922;2022-10-14T12:36:44;9.93;;;5.05;;
57385;SDS011;62655;56.780;23.922;2022-10-14T12:41:50;10.40;;;5.50;;
57385;SDS011;62655;56.780;23.922;2022-10-14T12:47:02;7.78;;;6.15;;
57385;SDS011;62655;56.780;23.922;2022-10-14T12:49:31;14.52;;;6.15;;
57385;SDS011;62655;56.780;23.922;2022-10-14T12:52:02;35.05;;;17.23;;
57385;SDS011;62655;56.780;23.922;2022-10-14T12:54:33;9.48;;;6.82;;
57385;SDS011;62655;56.780;23.922;2022-10-14T12:57:45;10.38;;;8.75;;
57385;SDS011;62655;56.780;23.922;2022-10-14T12:59:54;15.63;;;6.38;;
57385;SDS011;62655;56.780;23.922;2022-10-14T13:02:29;13.82;;;6.80;;
57385;SDS011;62655;56.780;23.922;2022-10-14T13:05:09;18.15;;;6.63;;
57385;SDS011;62655;56.780;23.922;2022-10-14T13:08:57;11.55;;;6.32;;
57385;SDS011;62655;56.780;23.922;2022-10-14T13:10:46;10.60;;;7.35;;
57385;SDS011;62655;56.780;23.922;2022-10-14T13:16:08;12.30;;;7.70;;
57385;SDS011;62655;56.780;23.922;2022-10-14T13:18:51;15.57;;;6.90;;
57385;SDS011;62655;56.780;23.922;2022-10-14T13:24:12;17.10;;;9.18;;
57385;SDS011;62655;56.780;23.922;2022-10-14T13:30:03;15.75;;;8.20;;
57385;SDS011;62655;56.780;23.922;2022-10-14T13:32:47;12.57;;;6.72;;
57385;SDS011;62655;56.780;23.922;2022-10-14T13:35:27;11.82;;;7.78;;
57385;SDS011;62655;56.780;23.922;2022-10-14T13:38:15;19.07;;;7.33;;
57385;SDS011;62655;56.780;23.922;2022-10-14T13:43:39;16.10;;;6.72;;
57385;SDS011;62655;56.780;23.922;2022-10-14T13:46:11;11.77;;;6.13;;
57385;SDS011;62655;56.780;23.922;2022-10-14T13:49:01;14.38;;;9.98;;
57385;SDS011;62655;56.780;23.922;2022-10-14T13:54:23;13.90;;;7.63;;
57385;SDS011;62655;56.780;23.922;2022-10-14T13:57:10;14.55;;;9.02;;
57385;SDS011;62655;56.780;23.922;2022-10-14T13:59:59;12.30;;;8.35;;
57385;SDS011;62655;56.780;23.922;2022-10-14T14:02:46;13.45;;;7.97;;
57385;SDS011;62655;56.780;23.922;2022-10-14T14:05:22;13.35;;;7.22;;
57385;SDS011;62655;56.780;23.922;2022-10-14T14:07:51;15.10;;;7.67;;
57385;SDS011;62655;56.780;23.922;2022-10-14T14:10:39;10.05;;;7.07;;
57385;SDS011;62655;56.780;23.922;2022-10-14T14:13:42;13.25;;;7.30;;
57385;SDS011;62655;56.780;23.922;2022-10-14T14:16:30;11.40;;;7.43;;
57385;SDS011;62655;56.780;23.922;2022-10-14T14:19:02;12.52;;;7.53;;
57385;SDS011;62655;56.780;23.922;2022-10-14T14:21:36;19.55;;;12.30;;
57385;SDS011;62655;56.780;23.922;2022-10-14T14:24:09;10.88;;;7.80;;
57385;SDS011;62655;56.780;23.922;2022-10-14T14:26:59;22.27;;;10.73;;
57385;SDS011;62655;56.780;23.922;2022-10-14T14:29:30;18.38;;;11.52;;
57385;SDS011;62655;56.780;23.922;2022-10-14T14:31:59;38.67;;;21.73;;
57385;SDS011;62655;56.780;23.922;2022-10-14T14:34:33;14.68;;;9.68;;
57385;SDS011;62655;56.780;23.922;2022-10-14T14:42:30;18.23;;;11.68;;
57385;SDS011;62655;56.780;23.922;2022-10-14T14:45:05;19.08;;;12.38;;
57385;SDS011;62655;56.780;23.922;2022-10-14T14:47:43;21.98;;;13.20;;
57385;SDS011;62655;56.780;23.922;2022-10-14T14:50:12;21.05;;;13.95;;
57385;SDS011;62655;56.780;23.922;2022-10-14T14:52:59;18.70;;;11.57;;
57385;SDS011;62655;56.780;23.922;2022-10-14T14:58:30;26.63;;;14.93;;
57385;SDS011;62655;56.780;23.922;2022-10-14T15:01:06;36.55;;;16.67;;
57385;SDS011;62655;56.780;23.922;2022-10-14T15:03:48;29.88;;;16.50;;
57385;SDS011;62655;56.780;23.922;2022-10-14T15:06:38;41.53;;;19.48;;
57385;SDS011;62655;56.780;23.922;2022-10-14T15:09:21;48.27;;;25.27;;
57385;SDS011;62655;56.780;23.922;2022-10-14T15:11:56;25.43;;;14.07;;
57385;SDS011;62655;56.780;23.922;2022-10-14T15:17:01;32.78;;;16.13;;
57385;SDS011;62655;56.780;23.922;2022-10-14T15:19:35;26.60;;;15.68;;
57385;SDS011;62655;56.780;23.922;2022-10-14T15:22:08;23.08;;;16.42;;
57385;SDS011;62655;56.780;23.922;2022-10-14T15:27:30;36.63;;;20.08;;
57385;SDS011;62655;56.780;23.922;2022-10-14T15:30:25;33.83;;;20.13;;
57385;SDS011;62655;56.780;23.922;2022-10-14T15:33:20;22.02;;;13.38;;
57385;SDS011;62655;56.780;23.922;2022-10-14T15:35:58;26.30;;;15.10;;
57385;SDS011;62655;56.780;23.922;2022-10-14T15:38:27;24.98;;;14.70;;
57385;SDS011;62655;56.780;23.922;2022-10-14T15:40:56;27.08;;;14.13;;
57385;SDS011;62655;56.780;23.922;2022-10-14T15:43:24;23.77;;;13.48;;
57385;SDS011;62655;56.780;23.922;2022-10-14T15:45:53;24.63;;;13.63;;
57385;SDS011;62655;56.780;23.922;2022-10-14T15:48:47;17.23;;;12.35;;
57385;SDS011;62655;56.780;23.922;2022-10-14T15:51:21;21.13;;;10.52;;
57385;SDS011;62655;56.780;23.922;2022-10-14T15:53:49;21.45;;;10.30;;
57385;SDS011;62655;56.780;23.922;2022-10-14T15:56:17;59.33;;;32.38;;
57385;SDS011;62655;56.780;23.922;2022-10-14T15:58:46;81.32;;;52.95;;
57385;SDS011;62655;56.780;23.922;2022-10-14T16:01:21;36.70;;;17.35;;
57385;SDS011;62655;56.780;23.922;2022-10-14T16:03:49;21.35;;;14.63;;
57385;SDS011;62655;56.780;23.922;2022-10-14T16:06:21;25.40;;;16.13;;
57385;SDS011;62655;56.780;23.922;2022-10-14T16:08:49;18.92;;;14.70;;
57385;SDS011;62655;56.780;23.922;2022-10-14T16:11:29;31.65;;;16.55;;
57385;SDS011;62655;56.780;23.922;2022-10-14T16:13:57;21.80;;;13.75;;
57385;SDS011;62655;56.780;23.922;2022-10-14T16:16:26;26.58;;;13.93;;
57385;SDS011;62655;56.780;23.922;2022-10-14T16:18:59;22.65;;;13.77;;
57385;SDS011;62655;56.780;23.922;2022-10-14T16:21:28;28.15;;;16.85;;
57385;SDS011;62655;56.780;23.922;2022-10-14T16:23:55;26.88;;;18.27;;
57385;SDS011;62655;56.780;23.922;2022-10-14T16:26:24;29.25;;;17.23;;
57385;SDS011;62655;56.780;23.922;2022-10-14T16:28:52;30.80;;;23.65;;
57385;SDS011;62655;56.780;23.922;2022-10-14T16:31:19;19.75;;;15.57;;
57385;SDS011;62655;56.780;23.922;2022-10-14T16:33:49;70.55;;;37.67;;
57385;SDS011;62655;56.780;23.922;2022-10-14T16:36:20;49.00;;;31.85;;
57385;SDS011;62655;56.780;23.922;2022-10-14T16:38:48;32.80;;;17.23;;
57385;SDS011;62655;56.780;23.922;2022-10-14T16:41:16;29.80;;;17.88;;
57385;SDS011;62655;56.780;23.922;2022-10-14T16:43:44;21.70;;;16.08;;
57385;SDS011;62655;56.780;23.922;2022-10-14T16:46:13;23.67;;;15.30;;
57385;SDS011;62655;56.780;23.922;2022-10-14T16:48:41;25.17;;;15.52;;
57385;SDS011;62655;56.780;23.922;2022-10-14T16:51:08;25.08;;;16.35;;
57385;SDS011;62655;56.780;23.922;2022-10-14T16:53:36;41.90;;;20.08;;
57385;SDS011;62655;56.780;23.922;2022-10-14T16:58:55;38.53;;;19.13;;
57385;SDS011;62655;56.780;23.922;2022-10-14T17:01:23;28.92;;;18.40;;
57385;SDS011;62655;56.780;23.922;2022-10-14T17:03:50;30.02;;;18.08;;
57385;SDS011;62655;56.780;23.922;2022-10-14T17:06:19;31.73;;;16.13;;
57385;SDS011;62655;56.780;23.922;2022-10-14T17:08:49;30.42;;;16.10;;
57385;SDS011;62655;56.780;23.922;2022-10-14T17:11:17;22.20;;;13.63;;
57385;SDS011;62655;56.780;23.922;2022-10-14T17:13:45;21.90;;;16.23;;
57385;SDS011;62655;56.780;23.922;2022-10-14T17:16:12;24.15;;;15.25;;
57385;SDS011;62655;56.780;23.922;2022-10-14T17:18:39;17.90;;;13.27;;
57385;SDS011;62655;56.780;23.922;2022-10-14T17:21:08;23.02;;;16.38;;
57385;SDS011;62655;56.780;23.922;2022-10-14T17:23:41;27.48;;;16.60;;
57385;SDS011;62655;56.780;23.922;2022-10-14T17:26:10;21.80;;;15.25;;
57385;SDS011;62655;56.780;23.922;2022-10-14T17:28:39;25.60;;;15.73;;
57385;SDS011;62655;56.780;23.922;2022-10-14T17:31:09;20.40;;;15.05;;
57385;SDS011;62655;56.780;23.922;2022-10-14T17:33:39;21.08;;;14.85;;